Time;durP1;ratioP1;P1;durP2;ratioP2;P2;SDS_P1;SDS_P2;PMS_P1;PMS_P2;Temp;Humidity;BMP_temperature;BMP_pressure;BME280_temperature;BME280_humidity;BME280_pressure;Samples;Min_cycle;Max_cycle;Signal;HPM_P1;HPM_P2
2023/07/14 00:00:23;;;;;;;;;8.25;7.25;;;;;23.33;45.82;101396.03;5022600;28;45506;-75
2023/07/14 00:02:50;;;;;;;;;7.00;7.00;;;;;23.27;45.71;101386.50;5040588;28;45402;-74
2023/07/14 00:05:21;;;;;;;;;6.25;6.25;;;;;23.26;45.65;101378.44;5027147;28;45301;-75
2023/07/14 00:07:49;;;;;;;;;7.50;7.00;;;;;23.29;45.85;101389.09;5027808;28;45471;-74
2023/07/14 00:10:19;;;;;;;;;5.75;5.75;;;;;23.26;45.95;101382.00;5041783;28;45593;-75
2023/07/14 00:12:44;;;;;;;;;6.50;5.00;;;;;23.20;46.02;101368.00;5028479;28;45359;-75
2023/07/14 00:15:11;;;;;;;;;6.00;6.00;;;;;23.15;46.24;101359.31;5039638;28;45389;-74
2023/07/14 00:17:37;;;;;;;;;8.00;6.25;;;;;23.18;46.07;101357.22;5040283;28;45371;-75
2023/07/14 00:20:19;;;;;;;;;5.00;5.00;;;;;23.17;45.77;101358.22;5040616;28;45359;-75
2023/07/14 00:22:45;;;;;;;;;5.00;5.00;;;;;23.17;46.11;101360.94;5040617;28;45473;-74
2023/07/14 00:25:12;;;;;;;;;5.00;5.00;;;;;23.15;45.94;101364.75;5040565;28;46179;-75
2023/07/14 00:27:38;;;;;;;;;7.75;5.00;;;;;23.09;46.30;101363.38;5040169;28;45500;-74
2023/07/14 00:30:13;;;;;;;;;4.00;4.00;;;;;23.07;45.86;101365.31;5022178;28;45426;-74
2023/07/14 00:32:39;;;;;;;;;3.50;3.50;;;;;22.85;46.07;101331.50;5040466;28;45333;-75
2023/07/14 00:35:20;;;;;;;;;4.00;3.50;;;;;23.03;46.04;101363.78;5021676;28;45890;-75
2023/07/14 00:37:47;;;;;;;;;2.25;2.25;;;;;23.06;46.11;101361.75;5038088;28;45434;-75
2023/07/14 00:40:17;;;;;;;;;3.25;3.25;;;;;23.06;46.46;101352.69;5022914;28;45788;-74
2023/07/14 00:42:42;;;;;;;;;2.00;2.00;;;;;23.09;46.03;101356.06;5040057;28;45458;-75
2023/07/14 00:45:14;;;;;;;;;4.00;4.00;;;;;23.09;46.33;101366.09;5040429;28;45313;-75
2023/07/14 00:47:42;;;;;;;;;4.00;3.00;;;;;23.03;46.16;101348.31;5021470;28;45502;-75
2023/07/14 00:50:21;;;;;;;;;5.00;5.00;;;;;22.99;46.13;101335.94;5039861;28;45412;-75
2023/07/14 00:52:48;;;;;;;;;3.00;3.00;;;;;22.80;46.42;101300.19;5039969;28;45467;-75
2023/07/14 00:55:37;;;;;;;;;6.75;4.50;;;;;23.05;46.38;101346.34;5029990;28;46176;-75
2023/07/14 00:58:11;;;;;;;;;5.25;3.00;;;;;23.01;46.20;101346.72;5027171;28;45242;-75
2023/07/14 01:00:36;;;;;;;;;6.25;6.00;;;;;22.97;46.11;101335.19;5040118;28;45257;-75
2023/07/14 01:03:05;;;;;;;;;8.75;7.75;;;;;23.04;46.27;101341.03;5039105;28;45355;-74
2023/07/14 01:05:31;;;;;;;;;11.75;10.50;;;;;23.01;46.18;101336.69;5039318;28;45599;-74
2023/07/14 01:07:57;;;;;;;;;12.50;10.50;;;;;22.94;46.38;101319.94;5039587;28;45457;-75
2023/07/14 01:10:26;;;;;;;;;12.00;12.00;;;;;23.00;46.35;101323.19;5038514;28;45333;-74
2023/07/14 01:12:57;;;;;;;;;13.25;13.00;;;;;22.97;46.40;101324.31;5028912;28;45415;-75
2023/07/14 01:15:23;;;;;;;;;18.00;18.00;;;;;23.00;46.50;101328.63;5038257;28;45501;-75
2023/07/14 01:17:50;;;;;;;;;12.75;12.50;;;;;22.96;46.44;101318.97;5039338;28;45332;-74
2023/07/14 01:20:16;;;;;;;;;15.75;14.50;;;;;22.98;46.74;101319.72;5021762;28;45366;-75
2023/07/14 01:23:12;;;;;;;;;13.75;13.00;;;;;22.96;46.49;101321.69;5039675;28;45542;-75
2023/07/14 01:25:38;;;;;;;;;14.75;12.75;;;;;22.98;46.52;101320.56;5025850;28;46350;-75
2023/07/14 01:28:07;;;;;;;;;15.75;13.00;;;;;22.98;46.22;101317.84;5039270;28;45546;-75
2023/07/14 01:30:34;;;;;;;;;12.25;12.25;;;;;22.92;46.69;101304.69;5039742;28;45555;-75
2023/07/14 01:32:59;;;;;;;;;16.50;12.00;;;;;22.97;46.43;101297.09;5039388;28;45397;-75
2023/07/14 01:35:32;;;;;;;;;13.25;12.25;;;;;22.98;46.40;101295.22;5039463;28;46217;-75
2023/07/14 01:37:58;;;;;;;;;13.25;12.00;;;;;22.91;46.62;101281.19;5036913;28;45622;-75
2023/07/14 01:40:24;;;;;;;;;12.25;10.50;;;;;22.96;46.93;101297.19;5039615;28;45564;-75
2023/07/14 01:42:55;;;;;;;;;9.00;9.00;;;;;22.97;46.91;101298.91;5037772;28;45544;-75
2023/07/14 01:45:23;;;;;;;;;12.75;12.00;;;;;22.98;46.64;101296.06;5038437;28;46627;-75
2023/07/14 01:47:53;;;;;;;;;13.75;12.00;;;;;22.98;46.65;101292.50;5038726;28;45399;-75
2023/07/14 01:50:43;;;;;;;;;12.50;12.00;;;;;22.92;46.68;101289.25;5039498;28;45439;-75
2023/07/14 01:53:22;;;;;;;;;3.75;1.25;;;;;22.91;46.54;101295.66;5039369;28;45308;-75
2023/07/14 01:55:51;;;;;;;;;13.00;12.00;;;;;22.91;46.76;101290.22;5038314;28;46241;-75
2023/07/14 01:58:23;;;;;;;;;18.50;15.25;;;;;22.84;47.32;101271.78;5039125;28;45389;-75
2023/07/14 02:00:52;;;;;;;;;13.75;11.50;;;;;22.80;47.02;101262.94;5037760;28;45272;-75
2023/07/14 02:03:29;;;;;;;;;11.50;11.50;;;;;22.90;46.64;101277.63;5038884;28;45465;-75
2023/07/14 02:05:55;;;;;;;;;11.00;11.00;;;;;22.85;46.99;101270.78;5038931;28;47063;-74
2023/07/14 02:08:24;;;;;;;;;15.50;14.25;;;;;22.89;47.36;101277.75;5037835;28;45292;-75
2023/07/14 02:10:49;;;;;;;;;15.75;14.00;;;;;22.88;47.01;101282.28;5034609;28;45335;-75
2023/07/14 02:13:15;;;;;;;;;15.00;13.25;;;;;22.78;47.34;101261.34;5013301;28;45329;-75
2023/07/14 02:15:40;;;;;;;;;15.00;13.75;;;;;22.82;47.16;101269.16;5036754;28;46936;-75
2023/07/14 02:18:11;;;;;;;;;11.75;11.00;;;;;22.86;47.17;101277.97;5020836;28;45609;-75
2023/07/14 02:20:40;;;;;;;;;12.75;12.75;;;;;22.78;47.40;101262.19;5023834;28;45356;-74
2023/07/14 02:23:11;;;;;;;;;10.00;10.00;;;;;22.75;46.87;101257.88;5036257;28;45514;-74
2023/07/14 02:25:46;;;;;;;;;11.75;10.25;;;;;22.79;47.24;101271.22;5027318;28;46324;-74
2023/07/14 02:28:13;;;;;;;;;11.25;11.25;;;;;22.79;47.38;101266.69;5038535;28;45327;-75
2023/07/14 02:30:42;;;;;;;;;11.50;11.50;;;;;22.78;47.60;101270.38;5037279;28;45304;-74
2023/07/14 02:33:14;;;;;;;;;11.75;11.75;;;;;22.83;47.68;101278.19;5038543;28;45500;-74
2023/07/14 02:35:56;;;;;;;;;13.00;12.00;;;;;22.79;47.35;101272.13;5038669;28;45582;-74
2023/07/14 02:38:22;;;;;;;;;9.00;9.00;;;;;22.68;47.83;101263.88;5034042;28;45543;-74
2023/07/14 02:41:07;;;;;;;;;16.00;12.00;;;;;22.69;47.60;101271.94;5038803;28;45373;-75
2023/07/14 02:43:32;;;;;;;;;12.75;10.50;;;;;22.47;47.84;101233.72;5025613;28;45237;-74
2023/07/14 02:46:11;;;;;;;;;7.25;7.25;;;;;22.60;48.56;101255.44;5036746;28;45444;-74
2023/07/14 02:48:43;;;;;;;;;13.50;11.25;;;;;22.68;48.24;101267.47;5038420;28;45517;-74
2023/07/14 02:51:09;;;;;;;;;11.25;10.75;;;;;22.66;48.08;101268.59;5038575;28;45531;-75
2023/07/14 02:53:35;;;;;;;;;12.25;12.25;;;;;22.43;48.22;101221.34;5038373;28;45264;-74
2023/07/14 02:56:01;;;;;;;;;11.50;11.50;;;;;22.57;48.13;101257.41;5037317;28;46252;-74
2023/07/14 02:58:26;;;;;;;;;14.00;12.25;;;;;22.64;48.33;101259.69;5038206;28;45555;-74
2023/07/14 03:00:52;;;;;;;;;13.25;12.00;;;;;22.62;48.45;101256.19;5038224;28;45474;-74
2023/07/14 03:03:18;;;;;;;;;14.25;13.00;;;;;22.57;48.44;101259.28;5038103;28;45394;-74
2023/07/14 03:05:44;;;;;;;;;12.50;12.00;;;;;22.58;48.18;101259.13;5020243;28;46600;-75
2023/07/14 03:08:14;;;;;;;;;16.75;11.50;;;;;22.57;48.66;101268.28;5038416;28;45352;-74
2023/07/14 03:10:44;;;;;;;;;8.25;8.25;;;;;22.43;48.73;101240.38;5034195;28;45312;-74
2023/07/14 03:13:10;;;;;;;;;13.25;12.00;;;;;22.38;48.64;101235.28;5012115;28;45603;-74
2023/07/14 03:15:36;;;;;;;;;11.00;10.50;;;;;22.48;48.50;101241.75;5037577;28;45335;-74
2023/07/14 03:18:01;;;;;;;;;9.50;9.50;;;;;22.46;48.98;101232.00;5038138;28;45317;-74
2023/07/14 03:20:26;;;;;;;;;10.75;9.50;;;;;22.33;48.59;101210.28;5038219;28;45513;-74
2023/07/14 03:22:52;;;;;;;;;9.00;7.75;;;;;22.36;49.00;101221.78;5037988;28;45369;-74
2023/07/14 03:25:17;;;;;;;;;8.25;8.25;;;;;22.37;48.97;101215.38;5026331;28;45403;-75
2023/07/14 03:27:44;;;;;;;;;10.50;10.50;;;;;22.36;49.36;101219.06;5037687;28;45345;-74
2023/07/14 03:30:09;;;;;;;;;7.00;7.00;;;;;22.43;48.94;101233.06;5038099;28;45307;-74
2023/07/14 03:32:35;;;;;;;;;7.50;7.50;;;;;22.42;49.31;101228.63;5040410;28;45331;-74
2023/07/14 03:35:00;;;;;;;;;7.25;7.25;;;;;22.38;48.94;101230.69;5041251;28;45501;-74
2023/07/14 03:37:25;;;;;;;;;7.25;7.25;;;;;22.45;49.08;101239.25;5019907;28;45552;-74
2023/07/14 03:39:51;;;;;;;;;9.00;8.00;;;;;22.30;49.79;101202.34;5036953;28;45474;-74
2023/07/14 03:42:16;;;;;;;;;9.50;8.25;;;;;22.38;49.54;101219.81;5023387;28;45309;-74
2023/07/14 03:44:41;;;;;;;;;8.75;8.75;;;;;22.42;49.09;101230.47;5040396;28;50329;-75
2023/07/14 03:47:07;;;;;;;;;8.25;7.75;;;;;22.33;49.65;101211.13;5023358;28;45471;-74
2023/07/14 03:49:32;;;;;;;;;9.00;9.00;;;;;22.27;49.83;101197.09;5041242;28;45927;-75
2023/07/14 03:51:58;;;;;;;;;6.75;6.75;;;;;22.41;49.78;101217.88;5023211;28;45634;-74
2023/07/14 03:54:23;;;;;;;;;9.50;9.00;;;;;22.18;49.10;101176.91;5040193;28;45378;-74
2023/07/14 03:56:52;;;;;;;;;7.00;7.00;;;;;22.29;49.53;101192.47;5031650;28;45308;-75
2023/07/14 03:59:17;;;;;;;;;6.00;6.00;;;;;22.36;49.16;101200.03;5040760;28;45331;-74
2023/07/14 04:01:43;;;;;;;;;8.75;6.75;;;;;22.21;49.77;101182.13;5040816;28;45430;-74
2023/07/14 04:04:08;;;;;;;;;10.25;8.00;;;;;22.36;49.14;101210.03;5040748;28;45993;-74
2023/07/14 04:06:34;;;;;;;;;8.50;6.50;;;;;22.37;49.15;101209.06;5041053;28;45503;-74
2023/07/14 04:09:00;;;;;;;;;10.75;9.25;;;;;22.33;49.34;101210.28;5023100;28;45316;-74
2023/07/14 04:11:26;;;;;;;;;7.25;7.25;;;;;22.32;49.63;101198.53;5030403;28;45495;-75
2023/07/14 04:13:51;;;;;;;;;9.00;9.00;;;;;22.28;49.21;101191.56;5033802;28;45466;-74
2023/07/14 04:16:17;;;;;;;;;9.00;8.00;;;;;22.30;49.40;101194.19;5022829;28;45365;-74
2023/07/14 04:18:42;;;;;;;;;11.25;9.50;;;;;22.33;49.58;101196.69;5040675;28;45301;-74
2023/07/14 04:21:10;;;;;;;;;11.50;9.25;;;;;22.32;49.68;101194.94;5040893;28;45483;-74
2023/07/14 04:23:36;;;;;;;;;8.75;8.00;;;;;22.31;49.89;101195.94;5038555;28;47934;-74
2023/07/14 04:26:02;;;;;;;;;10.75;9.75;;;;;22.27;49.83;101195.25;5038593;28;45553;-75
2023/07/14 04:28:29;;;;;;;;;11.00;9.75;;;;;22.33;50.11;101196.69;5039733;28;45315;-74
2023/07/14 04:31:00;;;;;;;;;10.50;10.50;;;;;22.26;49.87;101188.06;5040695;28;45392;-74
2023/07/14 04:33:26;;;;;;;;;10.75;10.75;;;;;22.33;49.54;101200.25;5026996;28;45409;-75
2023/07/14 04:35:52;;;;;;;;;8.25;7.25;;;;;22.27;49.43;101183.50;5040488;28;45512;-74
2023/07/14 04:38:18;;;;;;;;;7.25;7.25;;;;;22.21;49.56;101177.53;5038062;28;45418;-74
2023/07/14 04:40:44;;;;;;;;;8.50;7.50;;;;;22.25;49.66;101180.03;5040459;28;45506;-74
2023/07/14 04:43:11;;;;;;;;;7.00;7.00;;;;;22.13;49.53;101160.91;5039036;28;45435;-74
2023/07/14 04:45:39;;;;;;;;;7.25;7.25;;;;;22.25;50.22;101185.47;5040386;28;45495;-74
2023/07/14 04:48:09;;;;;;;;;9.00;8.75;;;;;22.20;49.76;101173.09;5040249;28;45481;-75
2023/07/14 04:50:35;;;;;;;;;7.75;7.75;;;;;22.29;50.36;101181.59;5022701;28;45376;-75
2023/07/14 04:53:05;;;;;;;;;9.00;7.25;;;;;22.20;49.92;101162.22;5040114;28;45436;-75
2023/07/14 04:55:31;;;;;;;;;7.50;6.50;;;;;22.28;50.35;101177.09;5005465;28;45260;-74
2023/07/14 04:57:57;;;;;;;;;7.50;7.50;;;;;22.23;50.39;101149.38;5039084;28;45654;-75
2023/07/14 05:00:23;;;;;;;;;6.50;5.00;;;;;22.26;50.45;101144.56;5040024;28;45320;-75
2023/07/14 05:02:48;;;;;;;;;6.00;6.00;;;;;22.18;50.06;101147.00;5039776;28;45235;-75
2023/07/14 05:05:18;;;;;;;;;8.00;7.50;;;;;22.19;50.08;101151.47;5040035;28;45319;-74
2023/07/14 05:07:44;;;;;;;;;6.25;6.25;;;;;22.15;50.01;101137.22;5022441;28;45499;-74
2023/07/14 05:10:10;;;;;;;;;6.75;6.75;;;;;22.18;49.97;101134.25;5039209;28;59101;-75
2023/07/14 05:12:35;;;;;;;;;6.75;6.75;;;;;22.17;50.57;101129.81;5039541;28;46763;-75
2023/07/14 05:15:04;;;;;;;;;5.25;5.25;;;;;22.20;50.13;101126.88;5038319;28;45282;-74
2023/07/14 05:17:29;;;;;;;;;9.25;8.00;;;;;22.21;49.85;101123.16;5026725;28;45282;-75
2023/07/14 05:19:56;;;;;;;;;10.00;6.25;;;;;22.20;50.50;101105.13;5040033;28;45515;-75
2023/07/14 05:22:21;;;;;;;;;7.50;6.00;;;;;22.14;50.49;101096.56;5026523;28;45687;-75
2023/07/14 05:24:47;;;;;;;;;7.00;7.00;;;;;22.17;49.87;101089.03;5039564;28;45435;-74
2023/07/14 05:27:12;;;;;;;;;5.00;5.00;;;;;22.19;50.22;101072.59;5039738;28;45457;-75
2023/07/14 05:29:38;;;;;;;;;6.75;6.75;;;;;22.10;49.85;101073.28;5039333;28;45526;-75
2023/07/14 05:32:04;;;;;;;;;5.00;5.00;;;;;21.93;50.18;101067.28;5021065;28;47438;-75
2023/07/14 05:34:29;;;;;;;;;6.50;6.00;;;;;22.04;50.52;101093.66;5039374;28;45445;-75
2023/07/14 05:36:54;;;;;;;;;4.75;2.00;;;;;21.95;50.53;101087.06;5037423;28;45449;-75
2023/07/14 05:39:20;;;;;;;;;7.50;5.50;;;;;22.06;50.62;101105.28;5038078;28;48386;-75
2023/07/14 05:41:45;;;;;;;;;5.00;5.00;;;;;21.97;50.53;101089.69;5037992;28;46005;-75
2023/07/14 05:44:10;;;;;;;;;4.25;4.00;;;;;21.98;50.54;101085.97;5038997;28;45495;-75
2023/07/14 05:46:36;;;;;;;;;4.50;4.00;;;;;22.11;50.59;101113.09;5038133;28;45323;-75
2023/07/14 05:49:01;;;;;;;;;4.00;4.00;;;;;21.86;49.75;101074.16;5039208;28;45340;-75
2023/07/14 05:51:26;;;;;;;;;6.50;4.25;;;;;22.08;50.06;101116.91;5037866;28;46967;-75
2023/07/14 05:53:52;;;;;;;;;4.75;4.00;;;;;22.00;50.03;101097.59;5039375;28;45349;-75
2023/07/14 05:56:17;;;;;;;;;3.00;3.00;;;;;21.98;49.60;101086.81;5038116;28;45250;-75
2023/07/14 05:58:42;;;;;;;;;4.00;4.00;;;;;22.03;49.46;101094.63;5038964;28;45245;-74
2023/07/14 06:01:08;;;;;;;;;6.25;3.50;;;;;22.07;49.25;101106.16;5038660;28;45341;-75
2023/07/14 06:03:33;;;;;;;;;3.50;3.25;;;;;22.07;49.56;101093.44;5036595;28;45389;-75
2023/07/14 06:06:03;;;;;;;;;3.50;3.50;;;;;21.97;49.58;101062.50;5037843;28;45423;-72
2023/07/14 06:08:28;;;;;;;;;2.50;2.50;;;;;22.06;49.29;101061.78;5037653;28;45416;-73
2023/07/14 06:10:55;;;;;;;;;4.00;4.00;;;;;22.03;49.28;101072.88;5036449;28;48329;-73
2023/07/14 06:13:20;;;;;;;;;3.75;3.75;;;;;21.96;49.11;101090.66;5038554;28;45369;-72
2023/07/14 06:15:48;;;;;;;;;4.00;2.75;;;;;22.04;49.68;101099.09;5037908;28;45723;-72
2023/07/14 06:18:13;;;;;;;;;5.00;5.00;;;;;21.95;49.55;101048.13;5038935;28;45399;-73
2023/07/14 06:20:38;;;;;;;;;3.25;3.00;;;;;22.09;49.42;101069.72;5038688;28;45604;-72
2023/07/14 06:23:04;;;;;;;;;4.00;4.00;;;;;22.13;49.62;101084.81;5017412;28;45829;-72
2023/07/14 06:25:30;;;;;;;;;5.25;4.25;;;;;22.14;49.59;101102.00;5037604;28;45401;-72
2023/07/14 06:27:55;;;;;;;;;4.50;4.50;;;;;22.15;49.80;101087.41;5038689;28;45325;-72
2023/07/14 06:30:24;;;;;;;;;3.75;3.75;;;;;22.09;49.48;101085.16;5020587;28;47012;-72
2023/07/14 06:32:49;;;;;;;;;6.00;5.00;;;;;22.11;49.44;101083.19;5038087;28;45411;-72
2023/07/14 06:35:14;;;;;;;;;4.25;4.25;;;;;22.19;49.18;101083.50;5038814;28;45499;-72
2023/07/14 06:37:40;;;;;;;;;4.75;4.75;;;;;22.19;49.47;101065.31;5038565;28;45646;-72
2023/07/14 06:40:08;;;;;;;;;3.00;3.00;;;;;22.13;49.09;101041.31;5025257;28;47147;-71
2023/07/14 06:42:33;;;;;;;;;5.00;5.00;;;;;22.12;49.58;101046.84;5038151;28;45529;-72
2023/07/14 06:44:59;;;;;;;;;3.00;3.00;;;;;22.18;49.30;101060.00;5037479;28;45475;-72
2023/07/14 06:47:24;;;;;;;;;5.50;5.00;;;;;22.05;49.48;101045.59;5037835;28;45338;-73
2023/07/14 06:49:49;;;;;;;;;5.25;5.00;;;;;22.13;49.54;101054.91;5014211;28;46342;-74
2023/07/14 06:52:15;;;;;;;;;4.50;4.50;;;;;22.14;49.30;101053.06;5031354;28;45384;-73
2023/07/14 06:54:40;;;;;;;;;5.00;5.00;;;;;22.14;48.88;101056.63;5028332;28;45352;-74
2023/07/14 06:57:06;;;;;;;;;5.50;5.50;;;;;22.01;49.29;101024.06;5037347;28;45856;-74
2023/07/14 06:59:32;;;;;;;;;5.00;5.00;;;;;22.02;49.17;101022.25;5038048;28;47366;-74
2023/07/14 07:01:57;;;;;;;;;7.25;6.00;;;;;22.00;49.52;101018.75;5037224;28;45303;-74
2023/07/14 07:04:22;;;;;;;;;4.75;3.75;;;;;22.05;48.85;101030.16;5012129;28;45671;-74
2023/07/14 07:06:48;;;;;;;;;6.50;5.75;;;;;22.11;49.08;101032.41;5033930;28;46099;-74
2023/07/14 07:09:13;;;;;;;;;7.75;5.00;;;;;22.17;49.12;101041.97;5041379;28;46018;-74
2023/07/14 07:11:38;;;;;;;;;5.00;5.00;;;;;22.02;49.45;101022.25;5019690;28;45425;-74
2023/07/14 07:14:04;;;;;;;;;4.75;4.75;;;;;22.12;48.96;101027.81;5041717;28;45483;-75
2023/07/14 07:16:29;;;;;;;;;5.75;5.75;;;;;22.12;48.54;101022.38;5040738;28;45447;-75
2023/07/14 07:18:56;;;;;;;;;6.00;6.00;;;;;22.21;48.98;101033.44;5041567;28;45601;-75
2023/07/14 07:21:21;;;;;;;;;5.00;4.50;;;;;22.22;48.81;101018.00;5040573;28;45364;-75
2023/07/14 07:23:47;;;;;;;;;6.25;5.00;;;;;22.11;48.72;100998.94;5039616;28;45792;-74
2023/07/14 07:26:12;;;;;;;;;8.00;6.00;;;;;22.19;49.10;101010.94;5040417;28;45265;-74
2023/07/14 07:28:38;;;;;;;;;4.00;4.00;;;;;22.26;48.83;101018.63;5033447;28;45569;-75
2023/07/14 07:31:09;;;;;;;;;5.00;5.00;;;;;22.33;48.74;101030.78;5037483;28;45508;-74
2023/07/14 07:33:35;;;;;;;;;7.00;5.50;;;;;22.14;49.14;100988.69;5039352;28;45396;-74
2023/07/14 07:36:00;;;;;;;;;5.00;5.00;;;;;22.18;49.10;100990.16;5041117;28;45406;-74
2023/07/14 07:38:25;;;;;;;;;5.75;4.25;;;;;22.36;48.88;101019.69;5040855;28;46115;-74
2023/07/14 07:40:51;;;;;;;;;5.75;5.75;;;;;22.28;49.07;101005.78;5023132;28;45380;-75
2023/07/14 07:43:16;;;;;;;;;8.25;5.50;;;;;22.31;48.97;101014.59;5037404;28;45635;-74
2023/07/14 07:45:47;;;;;;;;;4.25;4.25;;;;;22.33;48.83;101007.16;5036054;28;45278;-74
2023/07/14 07:48:13;;;;;;;;;5.75;5.00;;;;;22.23;48.89;100986.22;5040890;28;45498;-75
2023/07/14 07:50:38;;;;;;;;;2.50;2.50;;;;;22.43;48.72;101017.34;5040973;28;45518;-74
2023/07/14 07:53:04;;;;;;;;;6.00;5.00;;;;;22.48;48.53;101007.81;5040903;28;45427;-74
2023/07/14 07:55:29;;;;;;;;;3.50;3.50;;;;;22.43;48.71;100985.56;5040850;28;45397;-74
2023/07/14 07:57:55;;;;;;;;;3.00;3.00;;;;;22.34;48.96;100961.81;5021848;28;47550;-74
2023/07/14 08:00:20;;;;;;;;;4.25;4.25;;;;;22.56;48.57;100994.50;5022446;28;45556;-74
2023/07/14 08:02:49;;;;;;;;;5.25;4.50;;;;;22.62;47.90;100985.00;5031994;28;45329;-74
2023/07/14 08:05:14;;;;;;;;;5.00;3.00;;;;;22.54;48.07;100954.81;5027447;28;46116;-74
2023/07/14 08:07:40;;;;;;;;;5.00;4.25;;;;;22.69;48.11;100980.78;5039230;28;45405;-74
2023/07/14 08:10:07;;;;;;;;;5.75;4.00;;;;;22.71;48.24;100973.34;5039755;28;45506;-74
2023/07/14 08:12:32;;;;;;;;;6.25;5.75;;;;;22.61;47.98;100945.16;5037862;28;45765;-74
2023/07/14 08:14:57;;;;;;;;;5.25;4.00;;;;;22.75;47.88;100960.38;5021104;28;45795;-74
2023/07/14 08:17:31;;;;;;;;;3.50;3.50;;;;;22.75;47.92;100958.53;5036621;28;46512;-73
2023/07/14 08:19:57;;;;;;;;;5.00;5.00;;;;;22.72;47.50;100944.28;5038154;28;45510;-73
2023/07/14 08:22:23;;;;;;;;;5.00;4.50;;;;;22.71;47.61;100937.13;5011090;28;45420;-74
2023/07/14 08:24:49;;;;;;;;;5.00;5.00;;;;;22.69;47.89;100928.22;5036636;28;45654;-74
2023/07/14 08:27:14;;;;;;;;;5.25;4.50;;;;;22.87;47.94;100951.22;5027585;28;45883;-73
2023/07/14 08:29:40;;;;;;;;;3.50;3.00;;;;;22.87;47.81;100934.00;5018709;28;45414;-74
2023/07/14 08:32:06;;;;;;;;;4.50;4.50;;;;;23.12;47.48;100971.91;5000034;28;45391;-74
2023/07/14 08:34:32;;;;;;;;;7.00;6.00;;;;;23.17;47.51;100966.09;5019190;28;45520;-74
2023/07/14 08:36:57;;;;;;;;;4.00;3.75;;;;;23.05;47.61;100931.66;5016652;28;45934;-73
2023/07/14 08:39:23;;;;;;;;;3.25;3.25;;;;;23.06;47.10;100919.78;5017403;28;45907;-73
2023/07/14 08:41:56;;;;;;;;;3.00;3.00;;;;;23.27;46.54;100945.28;5000821;28;45388;-73
2023/07/14 08:44:31;;;;;;;;;6.00;4.25;;;;;23.39;46.35;100953.41;5017915;28;45595;-73
2023/07/14 08:47:07;;;;;;;;;3.00;3.00;;;;;23.43;46.30;100939.41;5015348;28;46413;-73
2023/07/14 08:49:55;;;;;;;;;4.25;4.25;;;;;23.22;45.55;100894.88;5017075;28;45982;-73
2023/07/14 08:52:34;;;;;;;;;5.25;3.50;;;;;23.53;45.98;100931.31;4999415;28;45599;-74
2023/07/14 08:55:14;;;;;;;;;3.00;3.00;;;;;23.60;45.11;100929.81;5018646;28;45599;-73
2023/07/14 08:57:43;;;;;;;;;4.00;4.00;;;;;23.51;45.13;100903.34;5018558;28;45428;-73
2023/07/14 09:00:15;;;;;;;;;5.75;4.00;;;;;23.72;44.41;100921.59;5018665;28;45471;-74
2023/07/14 09:03:02;;;;;;;;;3.00;3.00;;;;;23.70;44.11;100891.75;5017118;28;45312;-74
2023/07/14 09:05:28;;;;;;;;;4.50;3.25;;;;;23.79;44.36;100896.41;5017935;28;45553;-73
2023/07/14 09:07:54;;;;;;;;;4.25;3.25;;;;;23.92;43.99;100909.88;5018652;28;45550;-74
2023/07/14 09:10:32;;;;;;;;;4.75;3.50;;;;;23.88;43.69;100874.84;5017232;28;45496;-73
2023/07/14 09:13:19;;;;;;;;;3.50;3.50;;;;;23.88;44.20;100864.78;4993239;28;45476;-74
2023/07/14 09:15:46;;;;;;;;;6.00;5.25;;;;;23.95;43.46;100863.25;5006649;28;45265;-74
2023/07/14 09:18:32;;;;;;;;;3.00;3.00;;;;;23.93;43.31;100835.28;5017142;28;45507;-72
2023/07/14 09:21:28;;;;;;;;;7.25;5.50;;;;;24.13;43.38;100854.47;5000645;28;45495;-71
2023/07/14 09:24:07;;;;;;;;;4.75;3.50;;;;;24.33;43.05;100880.00;4993175;28;45480;-70
2023/07/14 09:26:56;;;;;;;;;4.25;4.25;;;;;24.18;43.16;100842.16;5023258;28;46191;-69
2023/07/14 09:29:36;;;;;;;;;3.00;3.00;;;;;24.28;42.44;100838.63;5010916;28;46764;-70
2023/07/14 09:32:32;;;;;;;;;2.50;2.50;;;;;24.54;41.84;100860.81;5017733;28;45537;-69
2023/07/14 09:35:04;;;;;;;;;3.00;3.00;;;;;24.59;42.32;100864.94;5033088;28;45351;-71
2023/07/14 09:37:40;;;;;;;;;3.25;3.25;;;;;24.52;42.41;100839.13;5018026;28;45511;-71
2023/07/14 09:40:19;;;;;;;;;2.00;2.00;;;;;24.60;41.21;100835.75;5006239;28;47323;-71
2023/07/14 09:42:52;;;;;;;;;4.75;3.50;;;;;24.72;41.26;100853.75;5005006;28;45429;-72
2023/07/14 09:45:28;;;;;;;;;2.00;2.00;;;;;24.67;41.18;100830.59;5029478;28;45567;-76
2023/07/14 09:47:58;;;;;;;;;2.75;2.00;;;;;24.87;40.50;100840.56;5010628;28;45691;-74
2023/07/14 09:50:25;;;;;;;;;3.25;3.25;;;;;24.91;40.63;100847.50;5015224;28;45616;-73
2023/07/14 09:53:04;;;;;;;;;5.00;4.00;;;;;24.92;40.64;100827.34;5015298;28;45534;-73
2023/07/14 09:55:45;;;;;;;;;4.50;3.00;;;;;25.02;40.56;100835.56;5014654;28;45517;-72
2023/07/14 09:58:15;;;;;;;;;5.00;4.00;;;;;25.05;40.37;100832.56;5006396;28;45467;-70
2023/07/14 10:00:41;;;;;;;;;5.00;3.50;;;;;25.07;39.86;100824.22;5014908;28;45575;-72
2023/07/14 10:03:11;;;;;;;;;3.00;3.00;;;;;25.18;39.56;100829.56;5014919;28;45560;-73
2023/07/14 10:05:53;;;;;;;;;3.00;3.00;;;;;25.12;39.70;100794.63;5013589;28;45418;-70
2023/07/14 10:08:27;;;;;;;;;3.50;3.50;;;;;25.32;39.47;100811.91;5010231;28;45927;-74
2023/07/14 10:10:56;;;;;;;;;5.00;5.00;;;;;25.35;39.08;100800.69;5007696;28;45588;-69
2023/07/14 10:13:26;;;;;;;;;5.00;3.00;;;;;25.36;38.44;100790.63;5015166;28;45588;-69
2023/07/14 10:15:57;;;;;;;;;4.25;4.25;;;;;25.37;38.54;100789.63;5011982;28;45578;-74
2023/07/14 10:18:23;;;;;;;;;3.25;3.25;;;;;25.35;38.83;100773.38;5014318;28;45478;-77
2023/07/14 10:21:00;;;;;;;;;4.00;4.00;;;;;25.48;38.58;100795.78;5019033;28;45651;-76
2023/07/14 10:23:26;;;;;;;;;4.25;4.00;;;;;25.48;38.33;100773.94;5015498;28;45428;-77
2023/07/14 10:25:53;;;;;;;;;6.50;3.75;;;;;25.60;38.31;100776.50;5022260;28;45415;-76
2023/07/14 10:28:28;;;;;;;;;4.00;4.00;;;;;25.55;38.43;100760.53;5038376;28;45446;-76
2023/07/14 10:31:18;;;;;;;;;9.25;4.25;;;;;25.67;38.67;100774.91;5037871;28;45511;-76
2023/07/14 10:33:56;;;;;;;;;4.25;4.25;;;;;25.70;38.03;100758.22;5029721;28;46532;-76
2023/07/14 10:36:28;;;;;;;;;2.75;2.00;;;;;25.72;38.43;100764.38;5035984;28;45442;-76
2023/07/14 10:38:59;;;;;;;;;4.50;4.50;;;;;25.74;38.72;100764.25;5038579;28;45305;-75
2023/07/14 10:41:26;;;;;;;;;4.00;3.00;;;;;25.84;38.43;100754.13;5038963;28;46392;-76
2023/07/14 10:44:30;;;;;;;;;3.00;2.25;;;;;25.91;38.51;100743.47;5041966;28;45341;-76
2023/07/14 10:47:02;;;;;;;;;2.50;2.50;;;;;25.89;38.92;100741.75;5041546;28;45407;-76
2023/07/14 10:49:39;;;;;;;;;6.50;3.50;;;;;26.00;38.64;100748.09;5037408;28;46016;-76
2023/07/14 10:52:15;;;;;;;;;3.50;2.50;;;;;26.02;38.33;100740.59;5039056;28;45345;-76
2023/07/14 10:54:59;;;;;;;;;2.00;2.00;;;;;26.02;38.38;100724.16;5041409;28;45406;-76
2023/07/14 10:57:49;;;;;;;;;4.00;2.00;;;;;26.11;37.69;100733.34;5040572;28;45355;-76
2023/07/14 11:00:23;;;;;;;;;3.00;2.00;;;;;26.16;37.32;100712.75;5041111;28;45316;-76
2023/07/14 11:03:07;;;;;;;;;3.00;3.00;;;;;26.19;37.85;100697.88;5040487;28;46531;-76
2023/07/14 11:05:33;;;;;;;;;3.00;3.00;;;;;26.19;37.48;100687.78;5033826;28;45469;-76
2023/07/14 11:07:59;;;;;;;;;3.00;3.00;;;;;26.29;38.08;100687.72;5040751;28;45626;-76
2023/07/14 11:10:53;;;;;;;;;2.00;2.00;;;;;26.37;36.98;100690.56;5021715;28;45347;-76
2023/07/14 11:14:00;;;;;;;;;3.00;3.00;;;;;26.42;37.42;100684.63;5016304;28;46214;-76
2023/07/14 11:16:37;;;;;;;;;3.25;3.25;;;;;26.50;37.16;100681.16;5026521;28;45455;-76
2023/07/14 11:19:07;;;;;;;;;2.00;2.00;;;;;26.53;37.01;100668.00;5037650;28;45465;-76
2023/07/14 11:21:46;;;;;;;;;3.00;3.00;;;;;26.54;37.05;100658.75;5040596;28;45629;-76
2023/07/14 11:24:28;;;;;;;;;3.00;2.75;;;;;26.64;37.45;100674.28;5031855;28;46439;-76
2023/07/14 11:26:53;;;;;;;;;2.75;2.75;;;;;26.69;36.75;100678.28;5041413;28;45365;-76
2023/07/14 11:29:20;;;;;;;;;2.75;2.75;;;;;26.71;36.66;100653.47;5041368;28;45542;-76
2023/07/14 11:31:52;;;;;;;;;3.25;2.25;;;;;26.77;36.71;100653.72;5041290;28;45332;-76